createdAt,value
2023-04-09T00:00:31.367Z,5.10
2023-04-09T00:03:23.150Z,5.05
2023-04-09T00:05:55.605Z,5.01
2023-04-09T00:08:25.386Z,4.96
2023-04-09T00:10:56.256Z,4.92
2023-04-09T00:13:38.428Z,4.88
2023-04-09T00:16:09.232Z,4.84
2023-04-09T00:18:38.526Z,4.84
2023-04-09T00:21:09.205Z,4.85
2023-04-09T00:23:39.276Z,4.86
2023-04-09T00:26:10.871Z,4.86
2023-04-09T00:28:41.638Z,4.86
2023-04-09T00:31:11.735Z,4.84
2023-04-09T00:33:41.616Z,4.84
2023-04-09T00:36:11.991Z,4.84
2023-04-09T00:38:42.687Z,4.85
2023-04-09T00:41:12.576Z,4.83
2023-04-09T00:43:43.334Z,4.82
2023-04-09T00:46:13.408Z,4.81
2023-04-09T00:48:44.193Z,4.79
2023-04-09T00:51:14.656Z,4.74
2023-04-09T00:53:44.465Z,4.70
2023-04-09T00:56:15.959Z,4.67
2023-04-09T00:58:45.922Z,4.63
2023-04-09T01:01:16.062Z,4.61
2023-04-09T01:03:47.157Z,4.58
2023-04-09T01:06:38.654Z,4.57
2023-04-09T01:09:26.176Z,4.57
2023-04-09T01:12:13.175Z,4.56
2023-04-09T01:15:09.414Z,4.58
2023-04-09T01:17:48.361Z,4.58
2023-04-09T01:20:36.515Z,4.58
2023-04-09T01:23:20.711Z,4.57
2023-04-09T01:25:58.593Z,4.57
2023-04-09T01:28:36.048Z,4.56
2023-04-09T01:31:15.692Z,4.55
2023-04-09T01:33:46.417Z,4.55
2023-04-09T01:36:18.133Z,4.56
2023-04-09T01:38:49.480Z,4.55
2023-04-09T01:41:22.409Z,4.55
2023-04-09T01:43:53.671Z,4.56
2023-04-09T01:46:25.926Z,4.56
2023-04-09T01:48:57.321Z,4.54
2023-04-09T01:51:27.743Z,4.53
2023-04-09T01:53:57.230Z,4.52
2023-04-09T01:56:26.746Z,4.51
2023-04-09T01:58:56.083Z,4.49
2023-04-09T02:01:39.030Z,4.49
2023-04-09T02:04:21.254Z,4.51
2023-04-09T02:07:03.146Z,4.52
2023-04-09T02:09:37.092Z,4.54
2023-04-09T02:12:13.093Z,4.58
2023-04-09T02:14:46.541Z,4.62
2023-04-09T02:17:16.483Z,4.65
2023-04-09T02:19:48.096Z,4.68
2023-04-09T02:22:17.999Z,4.71
2023-04-09T02:24:47.800Z,4.74
2023-04-09T02:27:17.498Z,4.73
2023-04-09T02:29:47.914Z,4.71
2023-04-09T02:32:17.951Z,4.69
2023-04-09T02:34:48.006Z,4.68
2023-04-09T02:37:20.043Z,4.67
2023-04-09T02:39:50.624Z,4.63
2023-04-09T02:42:20.732Z,4.59
2023-04-09T02:44:50.703Z,4.55
2023-04-09T02:47:21.200Z,4.50
2023-04-09T02:49:52.207Z,4.48
2023-04-09T02:52:25.011Z,4.48
2023-04-09T02:54:54.995Z,4.46
2023-04-09T02:57:24.666Z,4.43
2023-04-09T02:59:56.134Z,4.41
2023-04-09T03:02:27.240Z,4.40
2023-04-09T03:04:57.535Z,4.37
2023-04-09T03:07:27.053Z,4.36
2023-04-09T03:09:57.623Z,4.36
2023-04-09T03:12:27.865Z,4.36
2023-04-09T03:14:57.016Z,4.37
2023-04-09T03:17:27.665Z,4.38
2023-04-09T03:19:59.106Z,4.38
2023-04-09T03:22:39.884Z,4.40
2023-04-09T03:25:30.017Z,4.41
2023-04-09T03:28:00.397Z,4.43
2023-04-09T03:30:39.242Z,4.46
2023-04-09T03:33:08.597Z,4.50
2023-04-09T03:35:47.643Z,4.54
2023-04-09T03:38:20.445Z,4.56
2023-04-09T03:40:52.574Z,4.59
2023-04-09T03:43:22.268Z,4.63
2023-04-09T03:45:54.544Z,4.67
2023-04-09T03:48:27.686Z,4.70
2023-04-09T03:50:59.477Z,4.71
2023-04-09T03:53:36.346Z,4.68
2023-04-09T03:56:09.919Z,4.65
2023-04-09T03:58:40.139Z,4.61
2023-04-09T04:01:11.790Z,4.53
2023-04-09T04:03:49.272Z,4.45
2023-04-09T04:06:26.909Z,4.40
2023-04-09T04:09:16.053Z,4.35
2023-04-09T04:12:08.527Z,4.30
2023-04-09T04:15:02.530Z,4.23
2023-04-09T04:17:37.202Z,4.19
2023-04-09T04:20:15.146Z,4.14
2023-04-09T04:22:56.685Z,4.05
2023-04-09T04:25:26.714Z,4.00
2023-04-09T04:27:58.115Z,3.97
2023-04-09T04:30:35.937Z,3.96
2023-04-09T04:33:09.170Z,3.97
2023-04-09T04:35:46.360Z,3.97
2023-04-09T04:38:31.570Z,3.97
2023-04-09T04:41:02.979Z,3.99
2023-04-09T04:43:34.319Z,4.03
2023-04-09T04:46:04.233Z,4.09
2023-04-09T04:48:33.722Z,4.18
2023-04-09T04:51:05.006Z,4.27
2023-04-09T04:53:42.458Z,4.38
2023-04-09T04:56:16.968Z,4.46
2023-04-09T04:59:01.288Z,4.56
2023-04-09T05:01:35.030Z,4.64
2023-04-09T05:04:05.925Z,4.74
2023-04-09T05:06:37.383Z,4.84
2023-04-09T05:09:10.777Z,4.91
2023-04-09T05:11:45.972Z,4.93
2023-04-09T05:14:18.834Z,4.96
2023-04-09T05:16:49.133Z,5.02
2023-04-09T05:19:19.603Z,5.06
2023-04-09T05:21:49.524Z,5.06
2023-04-09T05:24:24.223Z,5.05
2023-04-09T05:26:55.674Z,5.05
2023-04-09T05:29:25.665Z,5.06
2023-04-09T05:31:57.051Z,5.11
2023-04-09T05:34:34.472Z,5.15
2023-04-09T05:37:04.410Z,5.18
2023-04-09T05:39:38.456Z,5.21
2023-04-09T05:42:08.271Z,5.24
2023-04-09T05:44:55.152Z,5.26
2023-04-09T05:47:25.503Z,5.28
2023-04-09T05:50:04.806Z,5.29
2023-04-09T05:52:34.517Z,5.30
2023-04-09T05:55:07.350Z,5.31
2023-04-09T05:58:06.289Z,5.34
2023-04-09T06:00:35.683Z,5.34
2023-04-09T06:03:07.240Z,5.37
2023-04-09T06:05:36.698Z,5.39
2023-04-09T06:08:07.097Z,5.44
2023-04-09T06:10:36.917Z,5.48
2023-04-09T06:13:06.867Z,5.54
2023-04-09T06:15:39.363Z,5.59
2023-04-09T06:18:09.781Z,5.67
2023-04-09T06:20:39.346Z,5.73
2023-04-09T06:23:08.932Z,5.83
2023-04-09T06:25:39.530Z,5.96
2023-04-09T06:28:09.121Z,6.10
2023-04-09T06:30:38.421Z,6.19
2023-04-09T06:33:08.337Z,6.29
2023-04-09T06:35:38.419Z,6.39
2023-04-09T06:38:10.892Z,6.54
2023-04-09T06:40:41.102Z,6.68
2023-04-09T06:43:10.460Z,6.81
2023-04-09T06:45:48.372Z,6.94
2023-04-09T06:48:18.218Z,7.05
2023-04-09T06:50:48.291Z,7.14
2023-04-09T06:53:18.691Z,7.20
2023-04-09T06:55:48.176Z,7.22
2023-04-09T06:58:18.411Z,7.25
2023-04-09T07:00:50.005Z,7.37
2023-04-09T07:03:20.590Z,7.51
2023-04-09T07:05:50.958Z,7.64
2023-04-09T07:08:20.487Z,7.74
2023-04-09T07:10:51.584Z,7.82
2023-04-09T07:15:58.657Z,7.96
2023-04-09T07:18:28.436Z,8.13
2023-04-09T07:21:03.370Z,8.29
2023-04-09T07:23:37.506Z,8.51
2023-04-09T07:26:07.652Z,8.72
2023-04-09T07:28:36.994Z,8.86
2023-04-09T07:31:08.676Z,9.11
2023-04-09T07:33:39.108Z,9.41
2023-04-09T07:36:09.136Z,9.73
2023-04-09T07:38:38.512Z,9.99
2023-04-09T07:41:12.405Z,10.25
2023-04-09T07:43:44.857Z,10.51
2023-04-09T07:46:21.354Z,10.73
2023-04-09T07:48:50.837Z,10.97
2023-04-09T07:51:21.544Z,11.20
2023-04-09T07:53:51.049Z,11.38
2023-04-09T07:56:21.418Z,11.47
2023-04-09T07:58:55.036Z,11.55
2023-04-09T08:01:26.805Z,11.62
2023-04-09T08:03:56.389Z,11.66
2023-04-09T08:06:27.715Z,11.63
2023-04-09T08:08:59.084Z,11.65
2023-04-09T08:11:28.317Z,11.72
2023-04-09T08:13:58.039Z,11.85
2023-04-09T08:16:28.527Z,11.98
2023-04-09T08:18:58.078Z,12.02
2023-04-09T08:21:28.311Z,12.06
2023-04-09T08:24:02.146Z,12.27
2023-04-09T08:26:32.782Z,12.44
2023-04-09T08:29:02.585Z,12.57
2023-04-09T08:31:32.258Z,12.72
2023-04-09T08:34:01.561Z,12.89
2023-04-09T08:36:34.771Z,13.06
2023-04-09T08:39:04.401Z,13.07
2023-04-09T08:41:37.079Z,12.99
2023-04-09T08:44:07.037Z,13.11
2023-04-09T08:46:46.835Z,13.30
2023-04-09T08:49:16.655Z,13.37
2023-04-09T08:51:52.068Z,13.53
2023-04-09T08:55:07.477Z,13.71
2023-04-09T08:57:41.277Z,13.84
2023-04-09T09:00:12.703Z,13.97
2023-04-09T09:03:06.013Z,14.10
2023-04-09T09:05:41.452Z,14.24
2023-04-09T09:08:14.724Z,14.40
2023-04-09T09:10:48.217Z,14.44
2023-04-09T09:13:19.432Z,14.58
2023-04-09T09:15:53.511Z,14.73
2023-04-09T09:18:47.719Z,14.87
2023-04-09T09:21:23.598Z,15.04
2023-04-09T09:23:53.733Z,15.13
2023-04-09T09:26:31.144Z,15.13
2023-04-09T09:29:06.212Z,15.23
2023-04-09T09:31:51.524Z,15.31
2023-04-09T09:34:24.222Z,15.55
2023-04-09T09:36:57.132Z,15.79
2023-04-09T09:39:46.903Z,16.03
2023-04-09T09:42:24.782Z,16.24
2023-04-09T09:44:55.827Z,16.25
2023-04-09T09:47:25.747Z,16.26
2023-04-09T09:49:56.208Z,16.39
2023-04-09T09:52:27.622Z,16.60
2023-04-09T09:55:05.665Z,16.66
2023-04-09T09:57:40.237Z,16.57
2023-04-09T10:00:14.582Z,16.43
2023-04-09T10:03:00.058Z,16.19
2023-04-09T10:05:31.255Z,16.04
2023-04-09T10:08:03.313Z,15.84
2023-04-09T10:10:34.125Z,15.58
2023-04-09T10:13:07.863Z,15.45
2023-04-09T10:15:37.742Z,15.33
2023-04-09T10:18:14.728Z,15.31
2023-04-09T10:20:59.600Z,15.27
2023-04-09T10:23:52.292Z,15.22
2023-04-09T10:26:23.572Z,15.03
2023-04-09T10:29:14.843Z,14.91
2023-04-09T10:32:08.902Z,14.88
2023-04-09T10:34:42.500Z,14.93
2023-04-09T10:37:17.486Z,15.14
2023-04-09T10:39:49.229Z,15.29
2023-04-09T10:42:31.049Z,15.42
2023-04-09T10:45:15.265Z,15.56
2023-04-09T10:47:47.015Z,15.72
2023-04-09T10:50:24.119Z,15.77
2023-04-09T10:52:59.997Z,15.76
2023-04-09T10:55:39.306Z,15.87
2023-04-09T10:58:35.376Z,15.96
2023-04-09T11:01:17.827Z,15.48
2023-04-09T11:03:51.958Z,15.26
2023-04-09T11:06:33.364Z,15.06
2023-04-09T11:09:17.615Z,14.84
2023-04-09T11:12:28.758Z,14.75
2023-04-09T11:15:34.612Z,14.60
2023-04-09T11:18:28.252Z,14.48
2023-04-09T11:21:08.224Z,14.50
2023-04-09T11:23:40.790Z,14.37
2023-04-09T11:26:10.874Z,14.34
2023-04-09T11:28:43.621Z,14.33
2023-04-09T11:31:32.801Z,14.29
2023-04-09T11:34:03.918Z,14.16
2023-04-09T11:39:58.726Z,14.08
2023-04-09T11:42:34.853Z,13.94
2023-04-09T11:45:06.682Z,13.83
2023-04-09T11:47:37.164Z,13.71
2023-04-09T11:50:12.562Z,13.62
2023-04-09T11:52:44.811Z,13.58
2023-04-09T11:55:28.581Z,13.58
2023-04-09T11:58:01.532Z,13.62
2023-04-09T12:00:33.383Z,13.56
2023-04-09T12:03:06.347Z,13.54
2023-04-09T12:05:39.006Z,13.43
2023-04-09T12:08:11.313Z,13.46
2023-04-09T12:10:40.530Z,13.54
2023-04-09T12:13:10.870Z,13.65
2023-04-09T12:15:44.067Z,13.70
2023-04-09T12:18:14.514Z,13.70
2023-04-09T12:21:38.921Z,13.78
2023-04-09T12:24:11.356Z,13.93
2023-04-09T12:26:43.279Z,14.03
2023-04-09T12:29:42.005Z,14.08
2023-04-09T12:32:45.458Z,14.12
2023-04-09T12:35:16.081Z,14.23
2023-04-09T12:37:45.749Z,14.34
2023-04-09T12:40:15.897Z,14.41
2023-04-09T12:42:47.016Z,14.53
2023-04-09T12:45:20.182Z,14.61
2023-04-09T12:47:50.313Z,14.76
2023-04-09T12:50:37.046Z,14.92
2023-04-09T12:53:29.114Z,15.14
2023-04-09T12:55:59.540Z,15.38
2023-04-09T12:58:29.216Z,15.65
2023-04-09T13:00:59.235Z,15.87
2023-04-09T13:03:29.626Z,16.10
2023-04-09T13:05:59.267Z,16.39
2023-04-09T13:08:29.553Z,16.73
2023-04-09T13:11:01.345Z,17.34
2023-04-09T13:13:31.165Z,18.10
2023-04-09T13:16:02.653Z,18.87
2023-04-09T13:18:32.299Z,19.22
2023-04-09T13:21:03.543Z,19.45
2023-04-09T13:23:33.185Z,19.54
2023-04-09T13:26:02.582Z,19.71
2023-04-09T13:28:36.970Z,19.87
2023-04-09T13:31:07.011Z,20.02
2023-04-09T13:33:36.727Z,20.07
2023-04-09T13:36:07.817Z,20.00
2023-04-09T13:38:42.499Z,19.83
2023-04-09T13:41:12.113Z,19.44
2023-04-09T13:43:41.337Z,19.05
2023-04-09T13:46:11.860Z,18.71
2023-04-09T13:48:45.686Z,18.40
2023-04-09T13:51:15.050Z,18.10
2023-04-09T13:53:46.516Z,17.78
2023-04-09T13:56:17.082Z,17.55
2023-04-09T13:58:47.283Z,17.26
2023-04-09T14:01:17.108Z,16.99
2023-04-09T14:03:46.727Z,16.70
2023-04-09T14:06:21.350Z,16.46
2023-04-09T14:08:51.810Z,16.37
2023-04-09T14:11:22.140Z,16.31
2023-04-09T14:13:52.579Z,16.13
2023-04-09T14:16:26.338Z,15.96
2023-04-09T14:18:57.712Z,15.85
2023-04-09T14:21:29.927Z,15.73
2023-04-09T14:24:00.145Z,15.38
2023-04-09T14:26:29.738Z,15.21
2023-04-09T14:28:59.129Z,15.11
2023-04-09T14:31:28.826Z,15.04
2023-04-09T14:33:58.891Z,15.00
2023-04-09T14:36:29.197Z,14.94
2023-04-09T14:38:59.010Z,14.94
2023-04-09T14:41:35.513Z,14.94
2023-04-09T14:44:05.556Z,14.94
2023-04-09T14:46:35.038Z,14.94
2023-04-09T14:49:05.053Z,14.93
2023-04-09T14:51:37.858Z,14.95
2023-04-09T14:54:07.704Z,14.93
2023-04-09T14:56:39.070Z,14.90
2023-04-09T14:59:12.156Z,14.87
2023-04-09T15:01:48.066Z,14.87
2023-04-09T15:04:19.765Z,14.96
2023-04-09T15:06:51.756Z,15.07
2023-04-09T15:09:21.866Z,15.17
2023-04-09T15:11:54.501Z,15.22
2023-04-09T15:14:32.061Z,15.28
2023-04-09T15:17:01.769Z,15.36
2023-04-09T15:19:33.327Z,15.36
2023-04-09T15:22:04.473Z,15.28
2023-04-09T15:24:34.748Z,15.24
2023-04-09T15:27:04.499Z,15.22
2023-04-09T15:29:34.294Z,15.28
2023-04-09T15:32:04.098Z,15.30
2023-04-09T15:34:34.438Z,15.24
2023-04-09T15:37:05.038Z,15.09
2023-04-09T15:39:35.685Z,14.94
2023-04-09T15:42:07.228Z,14.81
2023-04-09T15:44:39.901Z,14.67
2023-04-09T15:47:10.402Z,14.55
2023-04-09T15:49:39.712Z,14.42
2023-04-09T15:52:09.174Z,14.34
2023-04-09T15:54:46.493Z,14.28
2023-04-09T15:57:15.948Z,14.27
2023-04-09T15:59:48.834Z,14.23
2023-04-09T16:02:17.934Z,14.17
2023-04-09T16:04:47.606Z,14.07
2023-04-09T16:07:18.026Z,13.97
2023-04-09T16:09:48.090Z,13.86
2023-04-09T16:12:19.071Z,13.76
2023-04-09T16:14:48.528Z,13.66
2023-04-09T16:17:18.024Z,13.54
2023-04-09T16:19:57.223Z,13.41
2023-04-09T16:22:54.545Z,13.26
2023-04-09T16:25:25.037Z,13.14
2023-04-09T16:28:00.942Z,13.02
2023-04-09T16:30:31.767Z,12.92
2023-04-09T16:33:01.912Z,12.80
2023-04-09T16:35:42.007Z,12.68
2023-04-09T16:38:19.144Z,12.55
2023-04-09T16:40:48.761Z,12.42
2023-04-09T16:43:18.819Z,12.27
2023-04-09T16:45:48.901Z,12.15
2023-04-09T16:48:19.259Z,12.02
2023-04-09T16:50:49.007Z,11.84
2023-04-09T16:53:18.735Z,11.69
2023-04-09T16:55:49.821Z,11.54
2023-04-09T16:58:19.307Z,11.40
2023-04-09T17:00:52.398Z,11.25
2023-04-09T17:03:23.861Z,11.12
2023-04-09T17:05:54.336Z,10.98
2023-04-09T17:08:27.408Z,10.86
2023-04-09T17:11:02.761Z,10.71
2023-04-09T17:13:36.755Z,10.58
2023-04-09T17:16:07.300Z,10.47
2023-04-09T17:18:38.059Z,10.35
2023-04-09T17:21:08.081Z,10.23
2023-04-09T17:23:40.062Z,10.09
2023-04-09T17:26:09.331Z,9.95
2023-04-09T17:28:39.291Z,9.84
2023-04-09T17:31:16.328Z,9.73
2023-04-09T17:33:50.304Z,9.60
2023-04-09T17:36:21.804Z,9.42
2023-04-09T17:38:57.063Z,9.23
2023-04-09T17:41:26.717Z,9.07
2023-04-09T17:43:57.432Z,8.94
2023-04-09T17:46:26.957Z,8.79
2023-04-09T17:48:56.474Z,8.65
2023-04-09T17:51:27.590Z,8.50
2023-04-09T17:53:56.945Z,8.41
2023-04-09T17:56:27.687Z,8.30
2023-04-09T17:58:57.742Z,8.17
2023-04-09T18:01:28.482Z,8.04
2023-04-09T18:04:00.649Z,7.99
2023-04-09T18:06:31.951Z,7.96
2023-04-09T18:09:01.169Z,7.91
2023-04-09T18:11:31.967Z,7.87
2023-04-09T18:14:01.212Z,7.81
2023-04-09T18:16:32.543Z,7.76
2023-04-09T18:19:02.413Z,7.70
2023-04-09T18:21:33.149Z,7.68
2023-04-09T18:24:04.012Z,7.63
2023-04-09T18:26:34.433Z,7.57
2023-04-09T18:29:04.938Z,7.52
2023-04-09T18:31:35.371Z,7.45
2023-04-09T18:34:05.914Z,7.37
2023-04-09T18:36:43.497Z,7.31
2023-04-09T18:39:15.710Z,7.26
2023-04-09T18:41:47.143Z,7.20
2023-04-09T18:44:17.570Z,7.14
2023-04-09T18:46:50.657Z,7.09
2023-04-09T18:49:20.566Z,7.06
2023-04-09T18:51:50.799Z,7.04
2023-04-09T18:54:24.212Z,7.03
2023-04-09T18:56:53.571Z,7.01
2023-04-09T18:59:23.504Z,6.98
2023-04-09T19:01:59.155Z,6.92
2023-04-09T19:04:36.834Z,6.88
2023-04-09T19:07:06.766Z,6.84
2023-04-09T19:09:37.913Z,6.79
2023-04-09T19:12:07.468Z,6.71
2023-04-09T19:14:37.208Z,6.65
2023-04-09T19:17:07.982Z,6.60
2023-04-09T19:19:39.002Z,6.56
2023-04-09T19:22:08.588Z,6.53
2023-04-09T19:24:37.989Z,6.49
2023-04-09T19:27:12.191Z,6.48
2023-04-09T19:29:41.889Z,6.48
2023-04-09T19:32:13.796Z,6.44
2023-04-09T19:34:46.452Z,6.42
2023-04-09T19:37:19.118Z,6.39
2023-04-09T19:39:49.612Z,6.36
2023-04-09T19:42:22.450Z,6.33
2023-04-09T19:44:52.068Z,6.28
2023-04-09T19:47:23.064Z,6.23
2023-04-09T19:49:53.272Z,6.19
2023-04-09T19:52:23.953Z,6.16
2023-04-09T19:54:56.796Z,6.12
2023-04-09T19:57:26.877Z,6.08
2023-04-09T19:59:56.862Z,6.05
2023-04-09T20:02:26.750Z,6.04
2023-04-09T20:04:57.168Z,6.02
2023-04-09T20:07:29.776Z,5.99
2023-04-09T20:10:01.760Z,5.97
2023-04-09T20:12:32.607Z,5.97
2023-04-09T20:15:02.939Z,5.95
2023-04-09T20:17:33.072Z,5.95
2023-04-09T20:20:02.517Z,5.95
2023-04-09T20:22:32.395Z,5.95
2023-04-09T20:25:02.307Z,5.93
2023-04-09T20:27:32.477Z,5.92
2023-04-09T20:30:02.667Z,5.93
2023-04-09T20:32:32.926Z,5.93
2023-04-09T20:35:02.505Z,5.92
2023-04-09T20:37:38.402Z,5.92
2023-04-09T20:40:11.441Z,5.92
2023-04-09T20:42:42.668Z,5.92
2023-04-09T20:45:12.388Z,5.87
2023-04-09T20:47:42.031Z,5.81
2023-04-09T20:50:13.341Z,5.79
2023-04-09T20:52:43.853Z,5.76
2023-04-09T20:55:13.892Z,5.72
2023-04-09T20:57:44.181Z,5.69
2023-04-09T21:00:13.786Z,5.64
2023-04-09T21:02:46.142Z,5.58
2023-04-09T21:05:23.301Z,5.53
2023-04-09T21:07:55.100Z,5.47
2023-04-09T21:10:24.513Z,5.41
2023-04-09T21:12:55.786Z,5.36
2023-04-09T21:15:28.725Z,5.31
2023-04-09T21:18:00.289Z,5.24
2023-04-09T21:20:34.809Z,5.18
2023-04-09T21:23:04.886Z,5.07
2023-04-09T21:25:34.737Z,5.03
2023-04-09T21:28:04.356Z,4.99
2023-04-09T21:30:35.764Z,4.96
2023-04-09T21:33:07.378Z,4.93
2023-04-09T21:35:39.138Z,4.93
2023-04-09T21:38:08.348Z,4.97
2023-04-09T21:40:39.545Z,4.99
2023-04-09T21:43:09.569Z,5.05
2023-04-09T21:45:40.528Z,5.10
2023-04-09T21:48:10.564Z,5.20
2023-04-09T21:50:40.416Z,5.29
2023-04-09T21:53:11.441Z,5.38
2023-04-09T21:55:41.285Z,5.46
2023-04-09T21:58:12.503Z,5.53
2023-04-09T22:00:42.140Z,5.61
2023-04-09T22:03:12.959Z,5.68
2023-04-09T22:05:42.581Z,5.75
2023-04-09T22:08:13.795Z,5.82
2023-04-09T22:10:43.160Z,5.88
2023-04-09T22:13:13.324Z,5.93
2023-04-09T22:15:43.250Z,5.97
2023-04-09T22:18:13.400Z,5.98
2023-04-09T22:20:43.310Z,6.00
2023-04-09T22:23:13.853Z,6.00
2023-04-09T22:25:43.258Z,5.99
2023-04-09T22:28:13.243Z,5.98
2023-04-09T22:30:47.581Z,5.97
2023-04-09T22:33:17.949Z,5.96
2023-04-09T22:35:49.186Z,5.94
2023-04-09T22:38:19.348Z,5.93
2023-04-09T22:40:50.660Z,5.90
2023-04-09T22:43:20.148Z,5.88
2023-04-09T22:45:52.595Z,5.86
2023-04-09T22:48:23.368Z,5.85
2023-04-09T22:50:53.177Z,5.84
2023-04-09T22:53:22.730Z,5.84
2023-04-09T22:55:55.481Z,5.82
2023-04-09T22:58:25.383Z,5.81
2023-04-09T23:00:54.720Z,5.82
2023-04-09T23:03:25.491Z,5.81
2023-04-09T23:05:56.377Z,5.80
2023-04-09T23:08:25.853Z,5.77
2023-04-09T23:10:57.613Z,5.74
2023-04-09T23:13:26.864Z,5.71
2023-04-09T23:15:56.489Z,5.69
2023-04-09T23:18:26.023Z,5.66
2023-04-09T23:20:56.332Z,5.65
2023-04-09T23:23:25.905Z,5.61
2023-04-09T23:25:56.124Z,5.56
2023-04-09T23:28:25.596Z,5.53
2023-04-09T23:30:57.238Z,5.51
2023-04-09T23:33:27.113Z,5.51
2023-04-09T23:35:56.553Z,5.50
2023-04-09T23:38:26.148Z,5.50
2023-04-09T23:40:56.161Z,5.51
2023-04-09T23:43:26.011Z,5.50
2023-04-09T23:45:55.826Z,5.51
2023-04-09T23:48:25.074Z,5.52
2023-04-09T23:50:54.222Z,5.50
2023-04-09T23:53:23.624Z,5.49
2023-04-09T23:55:54.065Z,5.47
2023-04-09T23:58:24.021Z,5.46
